sensor_id;sensor_type;location;lat;lon;timestamp;P1;durP1;ratioP1;P2;durP2;ratioP2
7985;SDS011;4038;42.612;23.066;2022-10-16T00:00:39;30.77;;;28.27;;
7985;SDS011;4038;42.612;23.066;2022-10-16T00:03:06;30.13;;;27.83;;
7985;SDS011;4038;42.612;23.066;2022-10-16T00:05:32;30.37;;;27.97;;
7985;SDS011;4038;42.612;23.066;2022-10-16T00:07:58;29.27;;;26.90;;
7985;SDS011;4038;42.612;23.066;2022-10-16T00:10:24;31.83;;;29.23;;
7985;SDS011;4038;42.612;23.066;2022-10-16T00:12:49;31.80;;;29.30;;
7985;SDS011;4038;42.612;23.066;2022-10-16T00:15:15;31.27;;;28.67;;
7985;SDS011;4038;42.612;23.066;2022-10-16T00:17:40;30.83;;;27.80;;
7985;SDS011;4038;42.612;23.066;2022-10-16T00:20:06;32.00;;;28.80;;
7985;SDS011;4038;42.612;23.066;2022-10-16T00:22:32;31.57;;;28.70;;
7985;SDS011;4038;42.612;23.066;2022-10-16T00:24:58;31.53;;;28.50;;
7985;SDS011;4038;42.612;23.066;2022-10-16T00:27:23;31.63;;;28.40;;
7985;SDS011;4038;42.612;23.066;2022-10-16T00:29:49;31.40;;;28.70;;
7985;SDS011;4038;42.612;23.066;2022-10-16T00:32:16;31.20;;;28.07;;
7985;SDS011;4038;42.612;23.066;2022-10-16T00:34:42;32.60;;;29.80;;
7985;SDS011;4038;42.612;23.066;2022-10-16T00:37:07;32.67;;;29.50;;
7985;SDS011;4038;42.612;23.066;2022-10-16T00:39:33;30.93;;;28.47;;
7985;SDS011;4038;42.612;23.066;2022-10-16T00:41:58;28.13;;;25.80;;
7985;SDS011;4038;42.612;23.066;2022-10-16T00:47:10;29.53;;;27.27;;
7985;SDS011;4038;42.612;23.066;2022-10-16T00:49:37;28.63;;;26.47;;
7985;SDS011;4038;42.612;23.066;2022-10-16T00:52:03;27.50;;;25.40;;
7985;SDS011;4038;42.612;23.066;2022-10-16T00:54:30;28.20;;;25.90;;
7985;SDS011;4038;42.612;23.066;2022-10-16T00:56:58;29.07;;;26.80;;
7985;SDS011;4038;42.612;23.066;2022-10-16T00:59:33;31.13;;;28.63;;
7985;SDS011;4038;42.612;23.066;2022-10-16T01:02:01;31.43;;;28.67;;
7985;SDS011;4038;42.612;23.066;2022-10-16T01:04:31;28.83;;;26.33;;
7985;SDS011;4038;42.612;23.066;2022-10-16T01:09:44;30.17;;;27.43;;
7985;SDS011;4038;42.612;23.066;2022-10-16T01:17:51;29.17;;;26.57;;
7985;SDS011;4038;42.612;23.066;2022-10-16T01:20:26;30.03;;;27.63;;
7985;SDS011;4038;42.612;23.066;2022-10-16T01:28:33;29.13;;;26.73;;
7985;SDS011;4038;42.612;23.066;2022-10-16T01:31:04;31.03;;;28.07;;
7985;SDS011;4038;42.612;23.066;2022-10-16T01:33:34;31.33;;;28.50;;
7985;SDS011;4038;42.612;23.066;2022-10-16T01:36:07;31.43;;;28.43;;
7985;SDS011;4038;42.612;23.066;2022-10-16T01:38:38;30.03;;;27.33;;
7985;SDS011;4038;42.612;23.066;2022-10-16T01:43:38;31.17;;;28.47;;
7985;SDS011;4038;42.612;23.066;2022-10-16T01:46:08;28.60;;;26.23;;
7985;SDS011;4038;42.612;23.066;2022-10-16T01:48:35;29.87;;;27.23;;
7985;SDS011;4038;42.612;23.066;2022-10-16T01:51:08;28.53;;;26.13;;
7985;SDS011;4038;42.612;23.066;2022-10-16T01:53:37;28.10;;;25.90;;
7985;SDS011;4038;42.612;23.066;2022-10-16T01:56:07;30.27;;;27.73;;
7985;SDS011;4038;42.612;23.066;2022-10-16T01:58:37;29.03;;;26.63;;
7985;SDS011;4038;42.612;23.066;2022-10-16T02:01:07;28.50;;;26.20;;
7985;SDS011;4038;42.612;23.066;2022-10-16T02:03:36;30.03;;;27.23;;
7985;SDS011;4038;42.612;23.066;2022-10-16T02:06:05;29.60;;;27.10;;
7985;SDS011;4038;42.612;23.066;2022-10-16T02:08:31;29.43;;;26.93;;
7985;SDS011;4038;42.612;23.066;2022-10-16T02:10:57;28.83;;;26.53;;
7985;SDS011;4038;42.612;23.066;2022-10-16T02:13:24;29.27;;;26.73;;
7985;SDS011;4038;42.612;23.066;2022-10-16T02:15:53;28.27;;;25.83;;
7985;SDS011;4038;42.612;23.066;2022-10-16T02:18:18;31.07;;;28.30;;
7985;SDS011;4038;42.612;23.066;2022-10-16T02:23:14;30.73;;;28.03;;
7985;SDS011;4038;42.612;23.066;2022-10-16T02:25:49;30.40;;;27.57;;
7985;SDS011;4038;42.612;23.066;2022-10-16T02:30:47;28.93;;;26.23;;
7985;SDS011;4038;42.612;23.066;2022-10-16T02:33:16;30.87;;;27.97;;
7985;SDS011;4038;42.612;23.066;2022-10-16T02:35:44;29.47;;;27.03;;
7985;SDS011;4038;42.612;23.066;2022-10-16T02:38:11;29.70;;;27.10;;
7985;SDS011;4038;42.612;23.066;2022-10-16T02:40:38;29.67;;;26.93;;
7985;SDS011;4038;42.612;23.066;2022-10-16T02:43:04;29.57;;;26.80;;
7985;SDS011;4038;42.612;23.066;2022-10-16T02:45:30;29.80;;;26.93;;
7985;SDS011;4038;42.612;23.066;2022-10-16T02:47:56;30.60;;;27.80;;
7985;SDS011;4038;42.612;23.066;2022-10-16T02:50:21;29.33;;;26.83;;
7985;SDS011;4038;42.612;23.066;2022-10-16T02:52:47;28.93;;;26.73;;
7985;SDS011;4038;42.612;23.066;2022-10-16T02:55:13;28.30;;;26.07;;
7985;SDS011;4038;42.612;23.066;2022-10-16T02:57:39;28.40;;;26.07;;
7985;SDS011;4038;42.612;23.066;2022-10-16T03:00:05;28.83;;;26.33;;
7985;SDS011;4038;42.612;23.066;2022-10-16T03:02:35;29.97;;;27.20;;
7985;SDS011;4038;42.612;23.066;2022-10-16T03:05:01;29.30;;;26.90;;
7985;SDS011;4038;42.612;23.066;2022-10-16T03:07:26;28.87;;;26.43;;
7985;SDS011;4038;42.612;23.066;2022-10-16T03:09:51;28.63;;;26.23;;
7985;SDS011;4038;42.612;23.066;2022-10-16T03:12:17;29.57;;;26.77;;
7985;SDS011;4038;42.612;23.066;2022-10-16T03:14:42;28.43;;;25.93;;
7985;SDS011;4038;42.612;23.066;2022-10-16T03:17:08;27.93;;;25.53;;
7985;SDS011;4038;42.612;23.066;2022-10-16T03:19:33;29.07;;;26.57;;
7985;SDS011;4038;42.612;23.066;2022-10-16T03:21:59;29.83;;;27.27;;
7985;SDS011;4038;42.612;23.066;2022-10-16T03:24:25;28.63;;;26.03;;
7985;SDS011;4038;42.612;23.066;2022-10-16T03:26:50;28.47;;;25.87;;
7985;SDS011;4038;42.612;23.066;2022-10-16T03:29:15;27.73;;;25.43;;
7985;SDS011;4038;42.612;23.066;2022-10-16T03:31:41;29.50;;;26.90;;
7985;SDS011;4038;42.612;23.066;2022-10-16T03:34:06;28.90;;;26.50;;
7985;SDS011;4038;42.612;23.066;2022-10-16T03:36:32;43.67;;;33.63;;
7985;SDS011;4038;42.612;23.066;2022-10-16T03:38:57;54.77;;;34.90;;
7985;SDS011;4038;42.612;23.066;2022-10-16T03:41:22;73.93;;;36.03;;
7985;SDS011;4038;42.612;23.066;2022-10-16T03:43:48;33.07;;;29.50;;
7985;SDS011;4038;42.612;23.066;2022-10-16T03:46:13;45.40;;;29.80;;
7985;SDS011;4038;42.612;23.066;2022-10-16T03:48:39;70.10;;;31.47;;
7985;SDS011;4038;42.612;23.066;2022-10-16T03:51:05;29.20;;;26.07;;
7985;SDS011;4038;42.612;23.066;2022-10-16T03:53:31;28.27;;;25.83;;
7985;SDS011;4038;42.612;23.066;2022-10-16T03:55:56;28.60;;;26.20;;
7985;SDS011;4038;42.612;23.066;2022-10-16T03:58:21;30.53;;;27.70;;
7985;SDS011;4038;42.612;23.066;2022-10-16T04:00:47;28.63;;;26.33;;
7985;SDS011;4038;42.612;23.066;2022-10-16T04:03:13;29.87;;;27.10;;
7985;SDS011;4038;42.612;23.066;2022-10-16T04:05:39;31.40;;;28.33;;
7985;SDS011;4038;42.612;23.066;2022-10-16T04:08:05;32.93;;;29.43;;
7985;SDS011;4038;42.612;23.066;2022-10-16T04:10:31;30.57;;;27.73;;
7985;SDS011;4038;42.612;23.066;2022-10-16T04:12:56;31.07;;;28.00;;
7985;SDS011;4038;42.612;23.066;2022-10-16T04:15:22;30.93;;;27.67;;
7985;SDS011;4038;42.612;23.066;2022-10-16T04:17:48;31.00;;;28.00;;
7985;SDS011;4038;42.612;23.066;2022-10-16T04:20:14;28.70;;;26.20;;
7985;SDS011;4038;42.612;23.066;2022-10-16T04:22:39;29.97;;;26.83;;
7985;SDS011;4038;42.612;23.066;2022-10-16T04:25:05;29.10;;;26.40;;
7985;SDS011;4038;42.612;23.066;2022-10-16T04:27:30;30.33;;;27.40;;
7985;SDS011;4038;42.612;23.066;2022-10-16T04:29:57;34.20;;;28.43;;
7985;SDS011;4038;42.612;23.066;2022-10-16T04:32:22;36.90;;;31.47;;
7985;SDS011;4038;42.612;23.066;2022-10-16T04:34:48;35.50;;;30.40;;
7985;SDS011;4038;42.612;23.066;2022-10-16T04:37:13;33.50;;;27.23;;
7985;SDS011;4038;42.612;23.066;2022-10-16T04:39:39;28.57;;;25.77;;
7985;SDS011;4038;42.612;23.066;2022-10-16T04:42:04;29.67;;;26.50;;
7985;SDS011;4038;42.612;23.066;2022-10-16T04:44:29;30.73;;;27.53;;
7985;SDS011;4038;42.612;23.066;2022-10-16T04:46:55;29.27;;;26.43;;
7985;SDS011;4038;42.612;23.066;2022-10-16T04:49:20;30.47;;;27.37;;
7985;SDS011;4038;42.612;23.066;2022-10-16T04:51:46;31.23;;;27.80;;
7985;SDS011;4038;42.612;23.066;2022-10-16T04:54:11;30.03;;;27.07;;
7985;SDS011;4038;42.612;23.066;2022-10-16T04:56:36;30.10;;;27.23;;
7985;SDS011;4038;42.612;23.066;2022-10-16T04:59:08;28.33;;;25.77;;
7985;SDS011;4038;42.612;23.066;2022-10-16T05:01:34;28.90;;;26.27;;
7985;SDS011;4038;42.612;23.066;2022-10-16T05:04:00;30.23;;;27.03;;
7985;SDS011;4038;42.612;23.066;2022-10-16T05:06:29;29.67;;;26.73;;
7985;SDS011;4038;42.612;23.066;2022-10-16T05:08:54;29.70;;;26.70;;
7985;SDS011;4038;42.612;23.066;2022-10-16T05:11:20;32.47;;;27.53;;
7985;SDS011;4038;42.612;23.066;2022-10-16T05:13:45;31.30;;;28.03;;
7985;SDS011;4038;42.612;23.066;2022-10-16T05:16:10;33.23;;;28.27;;
7985;SDS011;4038;42.612;23.066;2022-10-16T05:18:36;30.57;;;27.47;;
7985;SDS011;4038;42.612;23.066;2022-10-16T05:21:01;31.27;;;27.97;;
7985;SDS011;4038;42.612;23.066;2022-10-16T05:23:26;32.60;;;27.33;;
7985;SDS011;4038;42.612;23.066;2022-10-16T05:25:55;30.93;;;27.80;;
7985;SDS011;4038;42.612;23.066;2022-10-16T05:28:23;29.23;;;26.53;;
7985;SDS011;4038;42.612;23.066;2022-10-16T05:30:52;28.07;;;25.77;;
7985;SDS011;4038;42.612;23.066;2022-10-16T05:33:21;31.20;;;26.93;;
7985;SDS011;4038;42.612;23.066;2022-10-16T05:35:47;29.17;;;26.27;;
7985;SDS011;4038;42.612;23.066;2022-10-16T05:38:14;28.40;;;25.77;;
7985;SDS011;4038;42.612;23.066;2022-10-16T05:40:40;30.77;;;27.57;;
7985;SDS011;4038;42.612;23.066;2022-10-16T05:43:06;30.17;;;27.53;;
7985;SDS011;4038;42.612;23.066;2022-10-16T05:45:31;30.70;;;28.10;;
7985;SDS011;4038;42.612;23.066;2022-10-16T05:47:56;30.23;;;27.20;;
7985;SDS011;4038;42.612;23.066;2022-10-16T05:50:22;29.95;;;27.38;;
7985;SDS011;4038;42.612;23.066;2022-10-16T05:52:47;31.50;;;28.90;;
7985;SDS011;4038;42.612;23.066;2022-10-16T05:55:13;32.83;;;29.83;;
7985;SDS011;4038;42.612;23.066;2022-10-16T05:57:38;31.85;;;28.77;;
7985;SDS011;4038;42.612;23.066;2022-10-16T06:00:04;34.47;;;31.27;;
7985;SDS011;4038;42.612;23.066;2022-10-16T06:02:30;34.08;;;31.23;;
7985;SDS011;4038;42.612;23.066;2022-10-16T06:04:55;33.67;;;30.70;;
7985;SDS011;4038;42.612;23.066;2022-10-16T06:07:21;32.65;;;29.55;;
7985;SDS011;4038;42.612;23.066;2022-10-16T06:09:48;33.20;;;29.98;;
7985;SDS011;4038;42.612;23.066;2022-10-16T06:12:14;33.13;;;30.23;;
7985;SDS011;4038;42.612;23.066;2022-10-16T06:14:40;40.03;;;32.58;;
7985;SDS011;4038;42.612;23.066;2022-10-16T06:17:06;38.90;;;31.00;;
7985;SDS011;4038;42.612;23.066;2022-10-16T06:19:31;34.55;;;30.80;;
7985;SDS011;4038;42.612;23.066;2022-10-16T06:21:56;37.53;;;30.20;;
7985;SDS011;4038;42.612;23.066;2022-10-16T06:24:23;35.63;;;31.40;;
7985;SDS011;4038;42.612;23.066;2022-10-16T06:26:49;34.67;;;30.90;;
7985;SDS011;4038;42.612;23.066;2022-10-16T06:29:14;35.20;;;30.02;;
7985;SDS011;4038;42.612;23.066;2022-10-16T06:31:40;33.80;;;29.95;;
7985;SDS011;4038;42.612;23.066;2022-10-16T06:34:05;32.38;;;29.23;;
7985;SDS011;4038;42.612;23.066;2022-10-16T06:36:34;33.63;;;30.17;;
7985;SDS011;4038;42.612;23.066;2022-10-16T06:39:00;32.50;;;29.08;;
7985;SDS011;4038;42.612;23.066;2022-10-16T06:41:27;34.92;;;30.95;;
7985;SDS011;4038;42.612;23.066;2022-10-16T06:43:53;36.00;;;30.17;;
7985;SDS011;4038;42.612;23.066;2022-10-16T06:46:20;32.67;;;29.42;;
7985;SDS011;4038;42.612;23.066;2022-10-16T06:48:49;33.80;;;30.52;;
7985;SDS011;4038;42.612;23.066;2022-10-16T06:51:16;33.70;;;30.17;;
7985;SDS011;4038;42.612;23.066;2022-10-16T06:53:44;33.42;;;29.85;;
7985;SDS011;4038;42.612;23.066;2022-10-16T06:56:17;34.85;;;31.30;;
7985;SDS011;4038;42.612;23.066;2022-10-16T06:58:45;33.70;;;30.70;;
7985;SDS011;4038;42.612;23.066;2022-10-16T07:01:11;36.55;;;32.63;;
7985;SDS011;4038;42.612;23.066;2022-10-16T07:03:41;34.70;;;31.08;;
7985;SDS011;4038;42.612;23.066;2022-10-16T07:06:08;36.15;;;32.15;;
7985;SDS011;4038;42.612;23.066;2022-10-16T07:08:36;35.17;;;31.45;;
7985;SDS011;4038;42.612;23.066;2022-10-16T07:11:08;35.00;;;31.38;;
7985;SDS011;4038;42.612;23.066;2022-10-16T07:13:38;33.70;;;30.38;;
7985;SDS011;4038;42.612;23.066;2022-10-16T07:16:05;36.70;;;30.75;;
7985;SDS011;4038;42.612;23.066;2022-10-16T07:18:31;36.25;;;29.52;;
7985;SDS011;4038;42.612;23.066;2022-10-16T07:21:07;35.00;;;31.15;;
7985;SDS011;4038;42.612;23.066;2022-10-16T07:23:44;33.33;;;30.05;;
7985;SDS011;4038;42.612;23.066;2022-10-16T07:26:09;34.47;;;29.05;;
7985;SDS011;4038;42.612;23.066;2022-10-16T07:28:36;33.35;;;30.05;;
7985;SDS011;4038;42.612;23.066;2022-10-16T07:31:03;33.35;;;29.77;;
7985;SDS011;4038;42.612;23.066;2022-10-16T07:33:30;33.00;;;29.85;;
7985;SDS011;4038;42.612;23.066;2022-10-16T07:35:57;31.60;;;28.42;;
7985;SDS011;4038;42.612;23.066;2022-10-16T07:38:22;33.03;;;29.52;;
7985;SDS011;4038;42.612;23.066;2022-10-16T07:40:48;33.67;;;30.25;;
7985;SDS011;4038;42.612;23.066;2022-10-16T07:43:21;34.88;;;31.50;;
7985;SDS011;4038;42.612;23.066;2022-10-16T07:45:49;34.00;;;30.70;;
7985;SDS011;4038;42.612;23.066;2022-10-16T07:48:15;34.20;;;31.05;;
7985;SDS011;4038;42.612;23.066;2022-10-16T07:50:42;34.67;;;31.17;;
7985;SDS011;4038;42.612;23.066;2022-10-16T07:53:08;38.72;;;32.45;;
7985;SDS011;4038;42.612;23.066;2022-10-16T07:55:34;36.90;;;33.10;;
7985;SDS011;4038;42.612;23.066;2022-10-16T07:58:00;34.65;;;30.90;;
7985;SDS011;4038;42.612;23.066;2022-10-16T08:00:25;42.40;;;38.15;;
7985;SDS011;4038;42.612;23.066;2022-10-16T08:02:51;34.05;;;30.65;;
7985;SDS011;4038;42.612;23.066;2022-10-16T08:05:16;31.85;;;28.83;;
7985;SDS011;4038;42.612;23.066;2022-10-16T08:07:41;30.67;;;27.98;;
7985;SDS011;4038;42.612;23.066;2022-10-16T08:10:10;30.58;;;27.65;;
7985;SDS011;4038;42.612;23.066;2022-10-16T08:12:41;32.33;;;28.70;;
7985;SDS011;4038;42.612;23.066;2022-10-16T08:15:06;31.63;;;28.52;;
7985;SDS011;4038;42.612;23.066;2022-10-16T08:17:32;30.95;;;28.08;;
7985;SDS011;4038;42.612;23.066;2022-10-16T08:19:57;30.08;;;27.55;;
7985;SDS011;4038;42.612;23.066;2022-10-16T08:22:23;28.27;;;25.70;;
7985;SDS011;4038;42.612;23.066;2022-10-16T08:24:48;30.42;;;27.50;;
7985;SDS011;4038;42.612;23.066;2022-10-16T08:27:13;28.83;;;26.58;;
7985;SDS011;4038;42.612;23.066;2022-10-16T08:29:39;30.13;;;27.52;;
7985;SDS011;4038;42.612;23.066;2022-10-16T08:32:04;29.17;;;26.73;;
7985;SDS011;4038;42.612;23.066;2022-10-16T08:34:30;29.08;;;26.30;;
7985;SDS011;4038;42.612;23.066;2022-10-16T08:36:55;28.38;;;26.02;;
7985;SDS011;4038;42.612;23.066;2022-10-16T08:39:21;27.90;;;25.63;;
7985;SDS011;4038;42.612;23.066;2022-10-16T08:47:17;26.70;;;24.40;;
7985;SDS011;4038;42.612;23.066;2022-10-16T08:49:54;27.85;;;25.45;;
7985;SDS011;4038;42.612;23.066;2022-10-16T08:52:22;28.10;;;25.58;;
7985;SDS011;4038;42.612;23.066;2022-10-16T08:54:51;28.13;;;25.92;;
7985;SDS011;4038;42.612;23.066;2022-10-16T08:57:20;28.65;;;26.33;;
7985;SDS011;4038;42.612;23.066;2022-10-16T08:59:47;28.27;;;25.85;;
7985;SDS011;4038;42.612;23.066;2022-10-16T09:02:28;27.42;;;25.30;;
7985;SDS011;4038;42.612;23.066;2022-10-16T09:13:29;26.60;;;24.42;;
7985;SDS011;4038;42.612;23.066;2022-10-16T09:23:37;31.35;;;28.88;;
7985;SDS011;4038;42.612;23.066;2022-10-16T09:26:03;25.70;;;23.88;;
7985;SDS011;4038;42.612;23.066;2022-10-16T09:28:30;26.73;;;24.38;;
7985;SDS011;4038;42.612;23.066;2022-10-16T09:30:56;25.77;;;23.65;;
7985;SDS011;4038;42.612;23.066;2022-10-16T09:33:23;26.17;;;24.05;;
7985;SDS011;4038;42.612;23.066;2022-10-16T09:35:54;25.73;;;23.83;;
7985;SDS011;4038;42.612;23.066;2022-10-16T09:38:25;26.55;;;24.55;;
7985;SDS011;4038;42.612;23.066;2022-10-16T09:40:53;26.20;;;23.77;;
7985;SDS011;4038;42.612;23.066;2022-10-16T09:46:06;24.60;;;22.80;;
7985;SDS011;4038;42.612;23.066;2022-10-16T09:48:54;25.60;;;23.88;;
7985;SDS011;4038;42.612;23.066;2022-10-16T09:54:33;26.08;;;24.15;;
7985;SDS011;4038;42.612;23.066;2022-10-16T09:56:41;24.95;;;23.25;;
7985;SDS011;4038;42.612;23.066;2022-10-16T09:59:17;25.48;;;23.75;;
7985;SDS011;4038;42.612;23.066;2022-10-16T10:01:45;25.67;;;23.63;;
7985;SDS011;4038;42.612;23.066;2022-10-16T10:04:13;24.80;;;23.00;;
7985;SDS011;4038;42.612;23.066;2022-10-16T10:06:46;25.55;;;23.83;;
7985;SDS011;4038;42.612;23.066;2022-10-16T10:09:26;24.65;;;22.85;;
7985;SDS011;4038;42.612;23.066;2022-10-16T10:12:04;23.80;;;22.05;;
7985;SDS011;4038;42.612;23.066;2022-10-16T10:17:12;24.02;;;22.42;;
7985;SDS011;4038;42.612;23.066;2022-10-16T10:19:47;24.50;;;22.90;;
7985;SDS011;4038;42.612;23.066;2022-10-16T10:25:22;22.30;;;20.83;;
7985;SDS011;4038;42.612;23.066;2022-10-16T10:36:36;23.23;;;21.70;;
7985;SDS011;4038;42.612;23.066;2022-10-16T10:39:14;22.52;;;20.92;;
7985;SDS011;4038;42.612;23.066;2022-10-16T11:06:43;23.40;;;21.65;;
7985;SDS011;4038;42.612;23.066;2022-10-16T11:09:15;24.20;;;22.40;;
7985;SDS011;4038;42.612;23.066;2022-10-16T11:14:26;24.33;;;22.52;;
7985;SDS011;4038;42.612;23.066;2022-10-16T11:17:16;24.48;;;22.77;;
7985;SDS011;4038;42.612;23.066;2022-10-16T11:20:10;23.10;;;21.40;;
7985;SDS011;4038;42.612;23.066;2022-10-16T11:22:41;22.73;;;21.23;;
7985;SDS011;4038;42.612;23.066;2022-10-16T11:25:22;23.88;;;22.08;;
7985;SDS011;4038;42.612;23.066;2022-10-16T11:30:46;25.08;;;23.27;;
7985;SDS011;4038;42.612;23.066;2022-10-16T11:39:07;24.60;;;22.90;;
7985;SDS011;4038;42.612;23.066;2022-10-16T11:47:07;23.33;;;21.63;;
7985;SDS011;4038;42.612;23.066;2022-10-16T11:49:40;23.70;;;22.00;;
7985;SDS011;4038;42.612;23.066;2022-10-16T11:57:53;23.35;;;21.77;;
7985;SDS011;4038;42.612;23.066;2022-10-16T12:00:46;24.95;;;23.25;;
7985;SDS011;4038;42.612;23.066;2022-10-16T12:03:22;24.05;;;22.45;;
7985;SDS011;4038;42.612;23.066;2022-10-16T12:09:28;25.35;;;23.40;;
7985;SDS011;4038;42.612;23.066;2022-10-16T12:11:55;24.80;;;22.90;;
7985;SDS011;4038;42.612;23.066;2022-10-16T12:16:54;23.38;;;21.67;;
7985;SDS011;4038;42.612;23.066;2022-10-16T12:19:25;23.08;;;21.48;;
7985;SDS011;4038;42.612;23.066;2022-10-16T12:21:54;25.42;;;23.52;;
7985;SDS011;4038;42.612;23.066;2022-10-16T12:27:20;24.05;;;22.20;;
7985;SDS011;4038;42.612;23.066;2022-10-16T12:30:01;24.08;;;22.58;;
7985;SDS011;4038;42.612;23.066;2022-10-16T12:32:31;23.58;;;21.98;;
7985;SDS011;4038;42.612;23.066;2022-10-16T12:34:59;25.17;;;23.25;;
7985;SDS011;4038;42.612;23.066;2022-10-16T12:37:35;25.25;;;23.65;;
7985;SDS011;4038;42.612;23.066;2022-10-16T12:42:50;24.08;;;22.33;;
7985;SDS011;4038;42.612;23.066;2022-10-16T12:45:26;22.95;;;21.25;;
7985;SDS011;4038;42.612;23.066;2022-10-16T12:47:53;23.85;;;22.15;;
7985;SDS011;4038;42.612;23.066;2022-10-16T12:50:38;24.98;;;23.17;;
7985;SDS011;4038;42.612;23.066;2022-10-16T12:53:22;23.40;;;21.80;;
7985;SDS011;4038;42.612;23.066;2022-10-16T12:56:22;23.25;;;21.65;;
7985;SDS011;4038;42.612;23.066;2022-10-16T12:59:01;23.75;;;21.95;;
7985;SDS011;4038;42.612;23.066;2022-10-16T13:01:40;22.65;;;21.05;;
7985;SDS011;4038;42.612;23.066;2022-10-16T13:04:31;24.23;;;22.38;;
7985;SDS011;4038;42.612;23.066;2022-10-16T13:07:06;23.45;;;21.95;;
7985;SDS011;4038;42.612;23.066;2022-10-16T13:09:43;23.83;;;22.02;;
7985;SDS011;4038;42.612;23.066;2022-10-16T13:17:46;22.83;;;21.13;;
7985;SDS011;4038;42.612;23.066;2022-10-16T13:25:56;23.58;;;21.77;;
7985;SDS011;4038;42.612;23.066;2022-10-16T13:28:41;23.27;;;21.52;;
7985;SDS011;4038;42.612;23.066;2022-10-16T13:31:25;23.52;;;21.83;;
7985;SDS011;4038;42.612;23.066;2022-10-16T13:33:52;23.70;;;22.10;;
7985;SDS011;4038;42.612;23.066;2022-10-16T13:36:28;24.08;;;22.48;;
7985;SDS011;4038;42.612;23.066;2022-10-16T13:41:38;23.58;;;21.95;;
7985;SDS011;4038;42.612;23.066;2022-10-16T13:44:04;22.45;;;20.95;;
7985;SDS011;4038;42.612;23.066;2022-10-16T13:46:36;23.27;;;21.58;;
7985;SDS011;4038;42.612;23.066;2022-10-16T13:49:05;24.60;;;22.75;;
7985;SDS011;4038;42.612;23.066;2022-10-16T13:51:38;28.20;;;23.15;;
7985;SDS011;4038;42.612;23.066;2022-10-16T13:54:04;22.48;;;20.88;;
7985;SDS011;4038;42.612;23.066;2022-10-16T13:56:31;23.38;;;21.75;;
7985;SDS011;4038;42.612;23.066;2022-10-16T13:59:01;22.88;;;21.00;;
7985;SDS011;4038;42.612;23.066;2022-10-16T14:01:31;23.65;;;22.05;;
7985;SDS011;4038;42.612;23.066;2022-10-16T14:04:09;24.00;;;22.40;;
7985;SDS011;4038;42.612;23.066;2022-10-16T14:06:40;22.55;;;20.95;;
7985;SDS011;4038;42.612;23.066;2022-10-16T14:11:48;23.95;;;22.15;;
7985;SDS011;4038;42.612;23.066;2022-10-16T14:14:32;22.25;;;20.63;;
7985;SDS011;4038;42.612;23.066;2022-10-16T14:17:05;24.50;;;22.80;;
7985;SDS011;4038;42.612;23.066;2022-10-16T14:19:30;23.95;;;22.23;;
7985;SDS011;4038;42.612;23.066;2022-10-16T14:21:57;23.48;;;21.75;;
7985;SDS011;4038;42.612;23.066;2022-10-16T14:26:58;23.75;;;22.05;;
7985;SDS011;4038;42.612;23.066;2022-10-16T14:29:25;23.23;;;21.42;;
7985;SDS011;4038;42.612;23.066;2022-10-16T14:31:56;23.77;;;21.98;;
7985;SDS011;4038;42.612;23.066;2022-10-16T14:34:36;24.65;;;22.95;;
7985;SDS011;4038;42.612;23.066;2022-10-16T14:39:53;23.10;;;21.40;;
7985;SDS011;4038;42.612;23.066;2022-10-16T14:42:20;22.98;;;21.08;;
7985;SDS011;4038;42.612;23.066;2022-10-16T14:44:49;23.35;;;21.65;;
7985;SDS011;4038;42.612;23.066;2022-10-16T14:47:20;24.58;;;22.77;;
7985;SDS011;4038;42.612;23.066;2022-10-16T14:49:51;23.20;;;21.50;;
7985;SDS011;4038;42.612;23.066;2022-10-16T14:52:19;23.55;;;21.75;;
7985;SDS011;4038;42.612;23.066;2022-10-16T14:54:48;23.85;;;22.17;;
7985;SDS011;4038;42.612;23.066;2022-10-16T14:57:18;24.63;;;22.83;;
7985;SDS011;4038;42.612;23.066;2022-10-16T14:59:47;25.08;;;23.38;;
7985;SDS011;4038;42.612;23.066;2022-10-16T15:04:50;22.67;;;21.08;;
7985;SDS011;4038;42.612;23.066;2022-10-16T15:07:16;23.25;;;21.63;;
7985;SDS011;4038;42.612;23.066;2022-10-16T15:09:42;22.95;;;21.25;;
7985;SDS011;4038;42.612;23.066;2022-10-16T15:12:07;23.60;;;21.85;;
7985;SDS011;4038;42.612;23.066;2022-10-16T15:14:33;24.20;;;22.50;;
7985;SDS011;4038;42.612;23.066;2022-10-16T15:16:58;23.23;;;21.52;;
7985;SDS011;4038;42.612;23.066;2022-10-16T15:19:25;24.50;;;22.63;;
7985;SDS011;4038;42.612;23.066;2022-10-16T15:21:50;25.48;;;23.65;;
7985;SDS011;4038;42.612;23.066;2022-10-16T15:24:17;24.40;;;22.80;;
7985;SDS011;4038;42.612;23.066;2022-10-16T15:26:43;29.42;;;27.05;;
7985;SDS011;4038;42.612;23.066;2022-10-16T15:29:11;24.80;;;23.00;;
7985;SDS011;4038;42.612;23.066;2022-10-16T15:31:36;24.38;;;22.67;;
7985;SDS011;4038;42.612;23.066;2022-10-16T15:34:02;23.85;;;22.05;;
7985;SDS011;4038;42.612;23.066;2022-10-16T15:36:32;23.63;;;21.92;;
7985;SDS011;4038;42.612;23.066;2022-10-16T15:39:02;24.77;;;22.90;;
7985;SDS011;4038;42.612;23.066;2022-10-16T15:41:28;23.50;;;21.80;;
7985;SDS011;4038;42.612;23.066;2022-10-16T15:43:54;23.77;;;21.98;;
7985;SDS011;4038;42.612;23.066;2022-10-16T15:46:20;24.77;;;22.88;;
7985;SDS011;4038;42.612;23.066;2022-10-16T15:48:50;23.92;;;22.23;;
7985;SDS011;4038;42.612;23.066;2022-10-16T15:51:20;25.25;;;23.55;;
7985;SDS011;4038;42.612;23.066;2022-10-16T15:53:46;24.60;;;22.90;;
7985;SDS011;4038;42.612;23.066;2022-10-16T15:56:12;24.40;;;22.50;;
7985;SDS011;4038;42.612;23.066;2022-10-16T15:58:38;24.02;;;22.23;;
7985;SDS011;4038;42.612;23.066;2022-10-16T16:01:03;23.38;;;21.67;;
7985;SDS011;4038;42.612;23.066;2022-10-16T16:03:30;23.25;;;21.58;;
7985;SDS011;4038;42.612;23.066;2022-10-16T16:05:56;24.58;;;22.88;;
7985;SDS011;4038;42.612;23.066;2022-10-16T16:08:23;23.27;;;21.63;;
7985;SDS011;4038;42.612;23.066;2022-10-16T16:11:01;22.92;;;21.25;;
7985;SDS011;4038;42.612;23.066;2022-10-16T16:13:29;25.95;;;23.92;;
7985;SDS011;4038;42.612;23.066;2022-10-16T16:15:54;25.13;;;23.20;;
7985;SDS011;4038;42.612;23.066;2022-10-16T16:18:20;24.23;;;22.42;;
7985;SDS011;4038;42.612;23.066;2022-10-16T16:20:46;23.42;;;21.63;;
7985;SDS011;4038;42.612;23.066;2022-10-16T16:23:11;22.35;;;20.83;;
7985;SDS011;4038;42.612;23.066;2022-10-16T16:25:37;23.25;;;21.63;;
7985;SDS011;4038;42.612;23.066;2022-10-16T16:28:02;22.67;;;21.08;;
7985;SDS011;4038;42.612;23.066;2022-10-16T16:30:27;23.73;;;22.13;;
7985;SDS011;4038;42.612;23.066;2022-10-16T16:32:53;23.25;;;21.65;;
7985;SDS011;4038;42.612;23.066;2022-10-16T16:35:18;24.02;;;21.98;;
7985;SDS011;4038;42.612;23.066;2022-10-16T16:37:44;22.75;;;21.15;;
7985;SDS011;4038;42.612;23.066;2022-10-16T16:40:09;22.92;;;21.33;;
7985;SDS011;4038;42.612;23.066;2022-10-16T16:42:35;24.20;;;22.67;;
7985;SDS011;4038;42.612;23.066;2022-10-16T16:45:00;24.80;;;22.95;;
7985;SDS011;4038;42.612;23.066;2022-10-16T16:47:26;23.15;;;21.45;;
7985;SDS011;4038;42.612;23.066;2022-10-16T16:49:51;23.85;;;21.95;;
7985;SDS011;4038;42.612;23.066;2022-10-16T16:52:16;24.00;;;22.10;;
7985;SDS011;4038;42.612;23.066;2022-10-16T16:54:42;24.83;;;22.83;;
7985;SDS011;4038;42.612;23.066;2022-10-16T16:57:09;24.75;;;22.63;;
7985;SDS011;4038;42.612;23.066;2022-10-16T16:59:35;25.33;;;23.33;;
7985;SDS011;4038;42.612;23.066;2022-10-16T17:02:00;26.45;;;23.90;;
7985;SDS011;4038;42.612;23.066;2022-10-16T17:04:26;26.25;;;24.05;;
7985;SDS011;4038;42.612;23.066;2022-10-16T17:06:54;28.35;;;25.60;;
7985;SDS011;4038;42.612;23.066;2022-10-16T17:09:20;25.27;;;23.48;;